createdAt,value
2023-01-23T00:00:09.528Z,17.60
2023-01-23T00:06:55.127Z,18.15
2023-01-23T00:13:37.696Z,20.20
2023-01-23T00:20:20.433Z,20.15
2023-01-23T00:27:03.057Z,17.98
2023-01-23T00:33:46.178Z,16.98
2023-01-23T00:40:28.565Z,17.17
2023-01-23T00:47:10.908Z,18.30
2023-01-23T00:53:53.304Z,15.90
2023-01-23T01:00:39.146Z,15.68
2023-01-23T01:07:21.491Z,18.08
2023-01-23T01:14:04.602Z,16.33
2023-01-23T01:20:47.119Z,13.40
2023-01-23T01:27:29.411Z,16.00
2023-01-23T01:34:13.944Z,18.23
2023-01-23T01:40:57.201Z,17.10
2023-01-23T01:47:39.483Z,15.43
2023-01-23T01:54:43.542Z,18.58
2023-01-23T02:01:26.630Z,17.23
2023-01-23T02:08:32.539Z,16.88
2023-01-23T02:15:16.098Z,15.88
2023-01-23T02:22:14.484Z,17.85
2023-01-23T02:28:57.339Z,14.52
2023-01-23T02:35:43.224Z,14.50
2023-01-23T02:42:27.249Z,16.55
2023-01-23T02:49:10.634Z,16.20
2023-01-23T02:55:53.933Z,17.65
2023-01-23T03:02:39.249Z,16.33
2023-01-23T03:09:25.253Z,16.33
2023-01-23T03:16:08.437Z,18.35
2023-01-23T03:22:50.828Z,18.48
2023-01-23T03:29:51.796Z,15.32
2023-01-23T03:36:37.258Z,17.08
2023-01-23T03:43:19.647Z,17.38
2023-01-23T03:50:06.032Z,17.70
2023-01-23T03:56:52.189Z,18.08
2023-01-23T04:04:00.696Z,20.27
2023-01-23T04:10:43.504Z,17.80
2023-01-23T04:17:31.023Z,20.02
2023-01-23T04:24:13.414Z,19.75
2023-01-23T04:30:55.944Z,19.42
2023-01-23T04:37:44.729Z,17.13
2023-01-23T04:44:27.521Z,17.30
2023-01-23T04:51:28.420Z,17.35
2023-01-23T04:58:11.549Z,18.60
2023-01-23T05:04:54.201Z,17.38
2023-01-23T05:11:37.162Z,19.00
2023-01-23T05:18:20.121Z,16.45
2023-01-23T05:25:03.959Z,18.77
2023-01-23T05:31:47.000Z,17.58
2023-01-23T05:39:01.260Z,18.63
2023-01-23T05:45:45.622Z,20.02
2023-01-23T05:52:38.679Z,16.23
2023-01-23T05:59:21.611Z,18.30
2023-01-23T06:06:16.989Z,17.38
2023-01-23T06:12:59.399Z,21.33
2023-01-23T06:19:42.368Z,17.85
2023-01-23T06:26:25.708Z,19.48
2023-01-23T06:33:09.022Z,18.58
2023-01-23T06:39:56.432Z,16.75
2023-01-23T06:46:38.989Z,23.10
2023-01-23T06:53:22.407Z,19.45
2023-01-23T07:00:08.317Z,25.58
2023-01-23T07:06:50.963Z,17.25
2023-01-23T07:13:35.478Z,19.92
2023-01-23T07:20:19.713Z,19.10
2023-01-23T07:27:08.877Z,20.73
2023-01-23T07:33:51.651Z,22.63
2023-01-23T07:40:33.952Z,21.35
2023-01-23T07:47:16.414Z,22.15
2023-01-23T07:53:59.060Z,22.73
2023-01-23T08:00:42.202Z,22.98
2023-01-23T08:07:24.639Z,20.60
2023-01-23T08:14:07.100Z,22.83
2023-01-23T08:20:57.102Z,20.80
2023-01-23T08:27:39.700Z,21.55
2023-01-23T08:34:23.951Z,20.17
2023-01-23T08:41:06.813Z,22.45
2023-01-23T08:47:49.231Z,19.30
2023-01-23T08:54:32.091Z,20.38
2023-01-23T09:01:17.196Z,20.10
2023-01-23T09:08:02.715Z,17.15
2023-01-23T09:14:45.024Z,14.82
2023-01-23T09:21:27.303Z,11.45
2023-01-23T09:28:09.924Z,12.43
2023-01-23T09:34:52.289Z,15.50
2023-01-23T09:41:34.784Z,12.57
2023-01-23T09:48:30.846Z,16.42
2023-01-23T09:55:31.588Z,14.73
2023-01-23T10:02:20.143Z,15.10
2023-01-23T10:09:21.289Z,13.80
2023-01-23T10:16:25.545Z,12.82
2023-01-23T10:23:46.472Z,13.80
2023-01-23T10:30:35.106Z,14.57
2023-01-23T10:37:32.289Z,16.15
2023-01-23T10:44:20.162Z,14.60
2023-01-23T10:51:04.216Z,13.18
2023-01-23T10:57:49.125Z,16.35
2023-01-23T11:04:36.487Z,15.57
2023-01-23T11:11:25.254Z,16.70
2023-01-23T11:18:31.617Z,14.73
2023-01-23T11:25:34.154Z,16.00
2023-01-23T11:32:17.326Z,15.35
2023-01-23T11:39:36.246Z,16.95
2023-01-23T11:46:38.387Z,15.55
2023-01-23T11:53:45.463Z,18.63
2023-01-23T12:00:43.883Z,16.92
2023-01-23T12:07:26.800Z,16.63
2023-01-23T12:14:28.059Z,20.05
2023-01-23T12:21:25.095Z,16.33
2023-01-23T12:28:31.043Z,17.88
2023-01-23T12:35:35.174Z,16.17
2023-01-23T12:42:53.030Z,18.35
2023-01-23T12:49:58.618Z,18.13
2023-01-23T12:56:41.875Z,19.42
2023-01-23T13:03:56.374Z,17.65
2023-01-23T13:11:23.281Z,16.05
2023-01-23T13:18:06.261Z,18.30
2023-01-23T13:25:12.943Z,13.93
2023-01-23T13:32:25.381Z,18.70
2023-01-23T13:39:16.333Z,16.73
2023-01-23T13:45:59.181Z,12.48
2023-01-23T14:22:06.350Z,12.85
2023-01-23T14:29:19.857Z,14.02
2023-01-23T14:36:02.241Z,14.82
2023-01-23T14:42:45.393Z,13.88
2023-01-23T14:49:33.581Z,17.13
2023-01-23T14:56:16.140Z,14.95
2023-01-23T15:02:58.558Z,16.92
2023-01-23T15:09:45.802Z,19.73
2023-01-23T15:16:33.909Z,17.42
2023-01-23T15:23:19.282Z,12.02
2023-01-23T15:30:35.566Z,14.68
2023-01-23T15:37:26.637Z,19.15
2023-01-23T15:44:17.718Z,15.65
2023-01-23T15:51:00.117Z,20.35
2023-01-23T15:57:43.330Z,17.05
2023-01-23T16:04:25.627Z,18.05
2023-01-23T16:11:07.906Z,14.57
2023-01-23T16:17:50.646Z,16.42
2023-01-23T16:24:39.271Z,16.05
2023-01-23T16:31:22.467Z,15.45
2023-01-23T16:38:06.109Z,19.40
2023-01-23T16:44:49.189Z,15.38
2023-01-23T16:51:34.982Z,17.85
2023-01-23T16:58:24.295Z,22.25
2023-01-23T17:05:07.208Z,21.48
2023-01-23T17:11:55.800Z,17.42
2023-01-23T17:18:38.212Z,19.73
2023-01-23T17:25:26.714Z,18.58
2023-01-23T17:32:36.542Z,16.88
2023-01-23T17:39:20.525Z,18.10
2023-01-23T17:46:05.119Z,19.73
2023-01-23T17:52:48.668Z,19.98
2023-01-23T17:59:31.859Z,23.65
2023-01-23T18:06:14.283Z,27.90
2023-01-23T18:13:08.483Z,24.25
2023-01-23T18:19:53.777Z,24.10
2023-01-23T18:26:56.323Z,23.60
2023-01-23T18:33:49.631Z,21.90
2023-01-23T18:40:59.147Z,23.05
2023-01-23T18:47:41.665Z,22.77
2023-01-23T18:54:54.301Z,24.25
2023-01-23T19:01:53.569Z,21.40
2023-01-23T19:08:36.232Z,23.70
2023-01-23T19:15:40.371Z,21.77
2023-01-23T19:22:24.149Z,22.17
2023-01-23T19:29:20.989Z,21.40
2023-01-23T19:36:08.934Z,22.13
2023-01-23T19:43:08.842Z,19.25
2023-01-23T19:49:55.719Z,21.75
2023-01-23T19:56:39.082Z,18.92
2023-01-23T20:03:21.435Z,17.83
2023-01-23T20:10:05.062Z,18.17
2023-01-23T20:16:47.547Z,16.65
2023-01-23T20:23:30.602Z,23.60
2023-01-23T20:30:18.673Z,16.58
2023-01-23T20:37:01.075Z,17.90
2023-01-23T20:43:44.392Z,19.15
2023-01-23T20:50:26.823Z,19.27
2023-01-23T20:57:09.276Z,17.83
2023-01-23T21:03:51.686Z,17.60
2023-01-23T21:10:34.010Z,23.67
2023-01-23T21:17:16.376Z,16.00
2023-01-23T21:23:58.895Z,18.83
2023-01-23T21:30:41.385Z,16.52
2023-01-23T21:37:24.402Z,16.90
2023-01-23T21:44:07.179Z,19.67
2023-01-23T21:50:49.678Z,20.48
2023-01-23T21:57:32.060Z,19.20
2023-01-23T22:04:18.495Z,16.85
2023-01-23T22:11:00.848Z,17.23
2023-01-23T22:17:43.163Z,17.67
2023-01-23T22:24:25.909Z,16.67
2023-01-23T22:31:14.527Z,19.50
2023-01-23T22:37:56.938Z,17.58
2023-01-23T22:44:40.040Z,19.92
2023-01-23T22:51:25.132Z,20.17
2023-01-23T22:58:07.427Z,17.30
2023-01-23T23:04:49.985Z,19.75
2023-01-23T23:11:32.601Z,22.48
2023-01-23T23:18:15.094Z,18.58
2023-01-23T23:24:57.369Z,19.80
2023-01-23T23:31:40.113Z,21.83
2023-01-23T23:38:23.425Z,21.27
2023-01-23T23:45:08.494Z,19.85
2023-01-23T23:51:51.133Z,19.85
2023-01-23T23:58:37.614Z,21.23
